createdAt,value
2018-12-22T00:00:59.488Z,991.52
2018-12-22T00:01:59.480Z,991.45
2018-12-22T00:02:59.488Z,991.48
2018-12-22T00:03:59.455Z,991.41
2018-12-22T00:04:59.443Z,991.49
2018-12-22T00:05:59.430Z,991.62
2018-12-22T00:06:59.419Z,991.52
2018-12-22T00:07:59.434Z,991.56
2018-12-22T00:08:59.401Z,991.51
2018-12-22T00:09:59.393Z,991.38
2018-12-22T00:10:59.386Z,991.60
2018-12-22T00:11:59.367Z,991.46
2018-12-22T00:12:59.359Z,991.58
2018-12-22T00:13:59.369Z,991.56
2018-12-22T00:14:59.338Z,991.58
2018-12-22T00:15:59.328Z,991.57
2018-12-22T00:16:59.331Z,991.57
2018-12-22T00:17:59.299Z,991.53
2018-12-22T00:18:59.363Z,991.56
2018-12-22T00:19:59.283Z,991.55
2018-12-22T00:20:59.271Z,991.57
2018-12-22T00:21:59.280Z,991.53
2018-12-22T00:22:59.253Z,991.55
2018-12-22T00:23:59.240Z,991.54
2018-12-22T00:24:59.226Z,991.50
2018-12-22T00:25:59.706Z,991.58
2018-12-22T00:26:59.235Z,991.66
2018-12-22T00:27:59.196Z,991.66
2018-12-22T00:28:59.183Z,991.66
2018-12-22T00:29:59.171Z,991.60
2018-12-22T00:30:59.159Z,991.67
2018-12-22T00:31:59.149Z,991.61
2018-12-22T00:32:59.160Z,991.62
2018-12-22T00:33:59.627Z,991.61
2018-12-22T00:34:59.215Z,991.55
2018-12-22T00:35:59.110Z,991.61
2018-12-22T00:36:59.132Z,991.66
2018-12-22T00:37:59.083Z,991.69
2018-12-22T00:38:59.076Z,991.70
2018-12-22T00:39:59.064Z,991.65
2018-12-22T00:40:59.075Z,991.71
2018-12-22T00:41:59.077Z,991.68
2018-12-22T00:42:59.030Z,991.65
2018-12-22T00:43:59.022Z,991.69
2018-12-22T00:44:59.013Z,991.67
2018-12-22T00:45:59.006Z,991.70
2018-12-22T00:46:58.993Z,991.71
2018-12-22T00:47:58.998Z,991.75
2018-12-22T00:48:58.968Z,991.72
2018-12-22T00:49:58.960Z,991.65
2018-12-22T00:50:58.942Z,991.80
2018-12-22T00:51:58.934Z,991.68
2018-12-22T00:52:58.944Z,991.77
2018-12-22T00:53:58.917Z,991.78
2018-12-22T00:54:58.907Z,991.78
2018-12-22T00:55:58.894Z,991.83
2018-12-22T00:56:58.903Z,991.74
2018-12-22T00:57:58.872Z,991.77
2018-12-22T00:58:58.875Z,991.71
2018-12-22T00:59:58.949Z,991.84
2018-12-22T01:00:58.838Z,991.74
2018-12-22T01:01:58.826Z,991.77
2018-12-22T01:02:58.830Z,991.75
2018-12-22T01:03:58.829Z,991.77
2018-12-22T01:04:58.796Z,991.79
2018-12-22T01:05:58.792Z,991.82
2018-12-22T01:06:58.784Z,991.73
2018-12-22T01:07:58.782Z,991.79
2018-12-22T01:08:58.752Z,991.75
2018-12-22T01:09:58.742Z,991.76
2018-12-22T01:10:58.726Z,991.80
2018-12-22T01:11:58.719Z,991.76
2018-12-22T01:12:58.727Z,991.79
2018-12-22T01:13:58.701Z,991.81
2018-12-22T01:14:58.683Z,991.80
2018-12-22T01:15:58.674Z,991.80
2018-12-22T01:16:58.683Z,991.87
2018-12-22T01:17:58.675Z,991.84
2018-12-22T01:18:58.646Z,991.95
2018-12-22T01:19:58.633Z,991.85
2018-12-22T01:20:58.621Z,991.86
2018-12-22T01:21:58.631Z,991.89
2018-12-22T01:22:58.653Z,991.90
2018-12-22T01:23:58.587Z,991.85
2018-12-22T01:24:58.579Z,991.91
2018-12-22T01:25:58.570Z,991.98
2018-12-22T01:26:58.564Z,991.91
2018-12-22T01:27:58.573Z,991.91
2018-12-22T01:28:58.534Z,991.85
2018-12-22T01:29:58.520Z,991.95
2018-12-22T01:30:58.516Z,991.91
2018-12-22T01:31:58.517Z,991.83
2018-12-22T01:32:58.491Z,991.89
2018-12-22T01:33:58.496Z,991.91
2018-12-22T01:34:58.496Z,991.93
2018-12-22T01:35:58.457Z,991.86
2018-12-22T01:36:58.481Z,991.88
2018-12-22T01:37:58.439Z,991.90
2018-12-22T01:38:58.446Z,992.02
2018-12-22T01:39:58.418Z,991.96
2018-12-22T01:40:58.404Z,991.95
2018-12-22T01:41:58.390Z,991.96
2018-12-22T01:42:58.390Z,991.93
2018-12-22T01:43:58.391Z,991.93
2018-12-22T01:44:58.364Z,991.99
2018-12-22T01:45:58.354Z,991.96
2018-12-22T01:46:58.336Z,991.93
2018-12-22T01:47:58.327Z,991.91
2018-12-22T01:48:58.336Z,991.93
2018-12-22T01:49:58.308Z,991.90
2018-12-22T01:50:58.299Z,991.95
2018-12-22T01:51:58.288Z,991.96
2018-12-22T01:52:58.277Z,991.93
2018-12-22T01:53:58.276Z,991.94
2018-12-22T01:54:58.251Z,991.97
2018-12-22T01:55:58.242Z,991.87
2018-12-22T01:56:58.248Z,991.96
2018-12-22T01:57:58.221Z,991.96
2018-12-22T01:58:58.231Z,991.93
2018-12-22T01:59:58.198Z,991.95
2018-12-22T02:00:58.191Z,991.92
2018-12-22T02:01:58.171Z,991.97
2018-12-22T02:02:58.167Z,991.99
2018-12-22T02:03:58.181Z,991.99
2018-12-22T02:04:58.161Z,992.01
2018-12-22T02:05:58.128Z,991.95
2018-12-22T02:06:58.117Z,991.94
2018-12-22T02:07:58.107Z,991.99
2018-12-22T02:08:58.104Z,991.99
2018-12-22T02:09:58.113Z,991.98
2018-12-22T02:10:58.079Z,991.95
2018-12-22T02:11:58.085Z,991.94
2018-12-22T02:12:58.058Z,991.96
2018-12-22T02:13:58.046Z,991.88
2018-12-22T02:14:58.051Z,991.85
2018-12-22T02:15:58.020Z,992.02
2018-12-22T02:16:58.028Z,991.92
2018-12-22T02:17:58.004Z,991.88
2018-12-22T02:18:57.986Z,991.83
2018-12-22T02:19:58.009Z,991.90
2018-12-22T02:20:57.975Z,991.87
2018-12-22T02:21:57.961Z,991.89
2018-12-22T02:22:57.949Z,991.84
2018-12-22T02:23:57.936Z,991.81
2018-12-22T02:24:57.945Z,991.79
2018-12-22T02:25:57.910Z,991.81
2018-12-22T02:26:57.917Z,991.79
2018-12-22T02:27:57.890Z,991.72
2018-12-22T02:28:57.882Z,991.77
2018-12-22T02:29:57.873Z,991.76
2018-12-22T02:30:57.863Z,991.70
2018-12-22T02:31:57.866Z,991.77
2018-12-22T02:32:57.844Z,991.81
2018-12-22T02:33:57.823Z,991.84
2018-12-22T02:34:57.844Z,991.78
2018-12-22T02:35:57.827Z,991.74
2018-12-22T02:36:57.807Z,991.74
2018-12-22T02:37:57.787Z,991.76
2018-12-22T02:38:57.772Z,991.77
2018-12-22T02:39:57.850Z,991.77
2018-12-22T02:40:57.756Z,991.73
2018-12-22T02:41:57.750Z,991.75
2018-12-22T02:42:57.732Z,991.80
2018-12-22T02:43:57.720Z,991.75
2018-12-22T02:44:57.723Z,991.69
2018-12-22T02:45:57.708Z,991.69
2018-12-22T02:46:57.705Z,991.62
2018-12-22T02:47:57.674Z,991.60
2018-12-22T02:48:57.664Z,991.64
2018-12-22T02:49:57.677Z,991.63
2018-12-22T02:50:57.646Z,991.62
2018-12-22T02:51:57.629Z,991.60
2018-12-22T02:52:57.651Z,991.57
2018-12-22T02:53:57.612Z,991.53
2018-12-22T02:54:57.601Z,991.50
2018-12-22T02:55:57.596Z,991.55
2018-12-22T02:56:57.577Z,991.59
2018-12-22T02:57:57.562Z,991.56
2018-12-22T02:59:05.804Z,991.55
2018-12-22T02:59:58.606Z,991.51
2018-12-22T03:00:57.533Z,991.52
2018-12-22T03:01:57.530Z,991.50
2018-12-22T03:02:57.514Z,991.48
2018-12-22T03:03:57.509Z,991.46
2018-12-22T03:04:57.488Z,991.37
2018-12-22T03:05:57.495Z,991.32
2018-12-22T03:06:57.487Z,991.32
2018-12-22T03:07:59.367Z,991.37
2018-12-22T03:08:57.444Z,991.33
2018-12-22T03:09:57.432Z,991.27
2018-12-22T03:10:57.447Z,991.28
2018-12-22T03:11:57.412Z,991.28
2018-12-22T03:12:57.403Z,991.32
2018-12-22T03:13:57.455Z,991.28
2018-12-22T03:14:57.418Z,991.24
2018-12-22T03:15:57.400Z,991.26
2018-12-22T03:16:57.386Z,991.17
2018-12-22T03:17:57.344Z,991.24
2018-12-22T03:18:57.333Z,991.15
2018-12-22T03:19:57.325Z,991.17
2018-12-22T03:20:57.318Z,991.13
2018-12-22T03:21:57.349Z,991.08
2018-12-22T03:22:57.290Z,991.06
2018-12-22T03:23:58.219Z,991.05
2018-12-22T03:24:57.275Z,990.96
2018-12-22T03:25:57.280Z,990.97
2018-12-22T03:26:57.252Z,990.91
2018-12-22T03:27:57.266Z,990.87
2018-12-22T03:28:57.267Z,990.88
2018-12-22T03:29:57.213Z,990.87
2018-12-22T03:30:57.203Z,990.82
2018-12-22T03:31:57.213Z,990.83
2018-12-22T03:32:57.211Z,990.78
2018-12-22T03:33:57.176Z,990.80
2018-12-22T03:34:57.174Z,990.77
2018-12-22T03:35:57.152Z,990.75
2018-12-22T03:36:57.139Z,990.71
2018-12-22T03:37:57.143Z,990.67
2018-12-22T03:38:57.124Z,990.66
2018-12-22T03:39:57.109Z,990.61
2018-12-22T03:40:57.095Z,990.57
2018-12-22T03:41:57.100Z,990.56
2018-12-22T03:42:57.072Z,990.52
2018-12-22T03:43:57.067Z,990.53
2018-12-22T03:44:57.054Z,990.46
2018-12-22T03:45:57.045Z,990.48
2018-12-22T03:46:57.057Z,990.48
2018-12-22T03:47:57.021Z,990.43
2018-12-22T03:48:57.017Z,990.47
2018-12-22T03:49:56.995Z,990.46
2018-12-22T03:50:56.984Z,990.47
2018-12-22T03:51:57.000Z,990.46
2018-12-22T03:52:56.967Z,990.41
2018-12-22T03:53:56.960Z,990.39
2018-12-22T03:54:56.942Z,990.44
2018-12-22T03:55:56.932Z,990.30
2018-12-22T03:56:56.945Z,990.34
2018-12-22T03:57:56.913Z,990.32
2018-12-22T03:58:56.903Z,990.29
2018-12-22T03:59:56.890Z,990.30
2018-12-22T04:00:56.880Z,990.34
2018-12-22T04:01:56.922Z,990.33
2018-12-22T04:02:56.870Z,990.32
2018-12-22T04:03:56.844Z,990.34
2018-12-22T04:04:56.841Z,990.42
2018-12-22T04:05:56.835Z,990.39
2018-12-22T04:06:56.823Z,990.46
2018-12-22T04:07:56.822Z,990.54
2018-12-22T04:08:56.798Z,990.56
2018-12-22T04:09:56.795Z,990.55
2018-12-22T04:10:56.798Z,990.61
2018-12-22T04:11:56.759Z,990.58
2018-12-22T04:12:56.763Z,990.59
2018-12-22T04:13:56.734Z,990.58
2018-12-22T04:14:56.722Z,990.53
2018-12-22T04:15:56.713Z,990.56
2018-12-22T04:16:56.704Z,990.53
2018-12-22T04:17:56.727Z,990.47
2018-12-22T04:18:56.686Z,990.45
2018-12-22T04:19:56.675Z,990.43
2018-12-22T04:20:56.657Z,990.38
2018-12-22T04:21:56.647Z,990.41
2018-12-22T04:22:56.635Z,990.36
2018-12-22T04:23:56.800Z,990.35
2018-12-22T04:24:56.625Z,990.32
2018-12-22T04:25:56.623Z,990.24
2018-12-22T04:26:56.596Z,990.33
2018-12-22T04:27:56.607Z,990.29
2018-12-22T04:28:56.611Z,990.17
2018-12-22T04:29:56.568Z,990.10
2018-12-22T04:30:56.557Z,990.23
2018-12-22T04:31:56.540Z,990.17
2018-12-22T04:32:56.530Z,990.02
2018-12-22T04:33:56.537Z,990.03
2018-12-22T04:34:56.504Z,990.12
2018-12-22T04:35:56.506Z,990.07
2018-12-22T04:36:56.485Z,990.03
2018-12-22T04:37:56.479Z,990.00
2018-12-22T04:38:56.466Z,990.00
2018-12-22T04:39:56.493Z,989.95
2018-12-22T04:40:56.446Z,989.99
2018-12-22T04:41:56.426Z,990.16
2018-12-22T04:42:56.423Z,989.98
2018-12-22T04:43:56.409Z,989.96
2018-12-22T04:44:56.417Z,990.04
2018-12-22T04:45:56.793Z,989.91
2018-12-22T04:46:56.375Z,990.03
2018-12-22T04:47:56.365Z,990.10
2018-12-22T04:48:56.381Z,990.04
2018-12-22T04:49:56.366Z,990.05
2018-12-22T04:50:56.335Z,990.03
2018-12-22T04:51:56.326Z,990.06
2018-12-22T04:52:56.312Z,990.02
2018-12-22T04:53:56.313Z,990.02
2018-12-22T04:54:56.284Z,990.19
2018-12-22T04:55:56.282Z,990.14
2018-12-22T04:56:56.268Z,990.10
2018-12-22T04:57:56.266Z,989.99
2018-12-22T04:58:56.260Z,989.98
2018-12-22T04:59:56.233Z,990.06
2018-12-22T05:00:56.252Z,990.05
2018-12-22T05:01:56.219Z,989.96
2018-12-22T05:02:56.209Z,989.98
2018-12-22T05:03:56.209Z,989.98
2018-12-22T05:04:56.184Z,990.18
2018-12-22T05:05:56.167Z,990.10
2018-12-22T05:06:56.155Z,990.05
2018-12-22T05:07:56.160Z,990.03
2018-12-22T05:08:56.155Z,990.09
2018-12-22T05:09:56.155Z,990.03
2018-12-22T05:10:56.128Z,990.13
2018-12-22T05:11:56.111Z,990.16
2018-12-22T05:12:56.099Z,990.14
2018-12-22T05:13:56.099Z,990.19
2018-12-22T05:14:56.092Z,990.28
2018-12-22T05:15:56.061Z,990.21
2018-12-22T05:16:56.048Z,990.23
2018-12-22T05:17:56.064Z,990.21
2018-12-22T05:18:56.034Z,990.29
2018-12-22T05:19:56.033Z,990.25
2018-12-22T05:20:56.032Z,990.38
2018-12-22T05:21:55.998Z,990.24
2018-12-22T05:22:56.094Z,990.35
2018-12-22T05:23:55.977Z,990.41
2018-12-22T05:24:55.978Z,990.19
2018-12-22T05:25:55.949Z,990.36
2018-12-22T05:26:55.937Z,990.09
2018-12-22T05:27:55.927Z,990.24
2018-12-22T05:28:55.931Z,990.27
2018-12-22T05:29:55.935Z,990.32
2018-12-22T05:30:55.898Z,990.43
2018-12-22T05:31:55.884Z,990.34
2018-12-22T05:32:55.875Z,990.44
2018-12-22T05:33:55.869Z,990.44
2018-12-22T05:34:55.899Z,990.37
2018-12-22T05:35:55.842Z,990.56
2018-12-22T05:36:55.829Z,990.51
2018-12-22T05:37:56.771Z,990.45
2018-12-22T05:38:55.804Z,990.56
2018-12-22T05:39:55.814Z,990.54
2018-12-22T05:40:55.787Z,990.53
2018-12-22T05:41:55.779Z,990.45
2018-12-22T05:42:55.776Z,990.42
2018-12-22T05:43:55.758Z,990.55
2018-12-22T05:44:55.759Z,990.59
2018-12-22T05:45:55.730Z,990.54
2018-12-22T05:46:55.724Z,990.69
2018-12-22T05:47:55.730Z,990.74
2018-12-22T05:48:55.715Z,990.54
2018-12-22T05:49:55.703Z,990.70
2018-12-22T05:50:55.675Z,990.67
2018-12-22T05:51:55.664Z,990.80
2018-12-22T05:52:55.659Z,990.83
2018-12-22T05:53:55.650Z,990.83
2018-12-22T05:54:55.659Z,990.80
2018-12-22T05:55:55.623Z,990.82
2018-12-22T05:56:55.691Z,991.01
2018-12-22T05:57:55.599Z,990.87
2018-12-22T05:58:55.590Z,990.95
2018-12-22T06:00:00.372Z,990.95
2018-12-22T06:00:56.567Z,990.95
2018-12-22T06:01:56.048Z,990.95
2018-12-22T06:02:55.546Z,990.91
2018-12-22T06:03:55.534Z,991.04
2018-12-22T06:04:55.544Z,991.06
2018-12-22T06:05:55.516Z,991.06
2018-12-22T06:06:55.506Z,991.05
2018-12-22T06:07:55.493Z,991.14
2018-12-22T06:08:55.479Z,991.10
2018-12-22T06:09:55.483Z,991.13
2018-12-22T06:10:55.474Z,991.10
2018-12-22T06:11:55.445Z,991.28
2018-12-22T06:12:55.437Z,991.17
2018-12-22T06:13:55.436Z,991.16
2018-12-22T06:14:55.418Z,991.18
2018-12-22T06:15:55.436Z,991.23
2018-12-22T06:16:55.392Z,991.23
2018-12-22T06:17:55.379Z,991.24
2018-12-22T06:18:55.378Z,991.24
2018-12-22T06:19:55.369Z,991.33
2018-12-22T06:20:55.373Z,991.32
2018-12-22T06:21:55.339Z,991.35
2018-12-22T06:22:55.325Z,991.38
2018-12-22T06:23:55.319Z,991.32
2018-12-22T06:24:55.314Z,991.40
2018-12-22T06:25:55.298Z,991.36
2018-12-22T06:26:55.309Z,991.33
2018-12-22T06:27:55.277Z,991.38
2018-12-22T06:28:55.260Z,991.42
2018-12-22T06:29:55.249Z,991.42
2018-12-22T06:30:55.264Z,991.48
2018-12-22T06:31:55.227Z,991.39
2018-12-22T06:32:55.223Z,991.43
2018-12-22T06:33:55.211Z,991.40
2018-12-22T06:34:55.194Z,991.51
2018-12-22T06:35:55.184Z,991.44
2018-12-22T06:36:55.202Z,991.48
2018-12-22T06:37:55.167Z,991.34
2018-12-22T06:38:55.154Z,991.39
2018-12-22T06:39:55.162Z,991.41
2018-12-22T06:40:55.134Z,991.45
2018-12-22T06:41:55.116Z,991.60
2018-12-22T06:42:55.108Z,991.47
2018-12-22T06:43:55.184Z,991.49
2018-12-22T06:44:55.203Z,991.54
2018-12-22T06:45:55.075Z,991.66
2018-12-22T06:46:55.082Z,991.56
2018-12-22T06:47:55.054Z,991.66
2018-12-22T06:48:55.055Z,991.64
2018-12-22T06:49:55.038Z,991.61
2018-12-22T06:50:55.053Z,991.62
2018-12-22T06:51:55.011Z,991.65
2018-12-22T06:52:55.008Z,991.67
2018-12-22T06:53:54.985Z,991.70
2018-12-22T06:54:54.994Z,991.66
2018-12-22T06:55:54.966Z,991.74
2018-12-22T06:56:54.991Z,991.79
2018-12-22T06:57:54.983Z,991.80
2018-12-22T06:58:54.962Z,991.75
2018-12-22T06:59:54.926Z,991.82
2018-12-22T07:00:54.912Z,991.95
2018-12-22T07:01:54.928Z,991.87
2018-12-22T07:02:54.893Z,992.04
2018-12-22T07:03:54.881Z,992.00
2018-12-22T07:04:54.892Z,991.95
2018-12-22T07:05:54.864Z,992.11
2018-12-22T07:06:54.870Z,992.13
2018-12-22T07:07:54.835Z,992.23
2018-12-22T07:08:54.821Z,992.30
2018-12-22T07:09:54.835Z,992.22
2018-12-22T07:10:54.804Z,992.26
2018-12-22T07:11:54.793Z,992.23
2018-12-22T07:12:54.785Z,992.27
2018-12-22T07:13:54.768Z,992.32
2018-12-22T07:14:54.781Z,992.32
2018-12-22T07:15:54.769Z,992.38
2018-12-22T07:16:54.742Z,992.43
2018-12-22T07:17:54.792Z,992.40
2018-12-22T07:18:54.714Z,992.47
2018-12-22T07:19:54.727Z,992.45
2018-12-22T07:20:54.690Z,992.57
2018-12-22T07:21:54.688Z,992.49
2018-12-22T07:22:54.691Z,992.62
2018-12-22T07:23:54.685Z,992.59
2018-12-22T07:24:54.653Z,992.67
2018-12-22T07:25:54.637Z,992.69
2018-12-22T07:26:54.633Z,992.74
2018-12-22T07:27:54.683Z,992.81
2018-12-22T07:28:54.654Z,992.77
2018-12-22T07:29:54.599Z,992.89
2018-12-22T07:30:54.783Z,992.88
2018-12-22T07:31:54.573Z,992.82
2018-12-22T07:32:57.238Z,993.01
2018-12-22T07:33:54.576Z,992.89
2018-12-22T07:34:54.543Z,992.90
2018-12-22T07:35:54.531Z,992.97
2018-12-22T07:36:54.524Z,993.03
2018-12-22T07:37:54.527Z,993.03
2018-12-22T07:38:54.500Z,993.12
2018-12-22T07:39:54.503Z,993.08
2018-12-22T07:40:54.474Z,993.06
2018-12-22T07:41:54.496Z,993.23
2018-12-22T07:42:54.464Z,993.13
2018-12-22T07:43:54.473Z,993.11
2018-12-22T07:44:54.434Z,993.20
2018-12-22T07:45:54.419Z,993.15
2018-12-22T07:46:54.414Z,993.29
2018-12-22T07:47:54.425Z,993.23
2018-12-22T07:48:54.432Z,993.24
2018-12-22T07:49:54.449Z,993.28
2018-12-22T07:50:54.367Z,993.37
2018-12-22T07:51:54.360Z,993.35
2018-12-22T07:52:54.361Z,993.30
2018-12-22T07:53:54.338Z,993.45
2018-12-22T07:54:54.336Z,993.34
2018-12-22T07:55:54.337Z,993.41
2018-12-22T07:56:54.304Z,993.47
2018-12-22T07:57:54.321Z,993.49
2018-12-22T07:58:54.279Z,993.48
2018-12-22T07:59:54.297Z,993.45
2018-12-22T08:00:54.254Z,993.49
2018-12-22T08:01:54.250Z,993.54
2018-12-22T08:02:54.238Z,993.50
2018-12-22T08:03:54.229Z,993.56
2018-12-22T08:04:54.247Z,993.62
2018-12-22T08:05:54.205Z,993.56
2018-12-22T08:06:54.205Z,993.71
2018-12-22T08:07:54.215Z,993.70
2018-12-22T08:08:54.178Z,993.73
2018-12-22T08:09:54.204Z,993.81
2018-12-22T08:10:54.193Z,993.76
2018-12-22T08:11:54.139Z,993.81
2018-12-22T08:12:54.146Z,993.69
2018-12-22T08:13:54.137Z,993.92
2018-12-22T08:14:54.112Z,993.85
2018-12-22T08:15:54.097Z,993.92
2018-12-22T08:16:54.091Z,993.93
2018-12-22T08:17:54.071Z,994.05
2018-12-22T08:18:54.080Z,994.02
2018-12-22T08:19:54.069Z,994.09
2018-12-22T08:20:54.069Z,993.99
2018-12-22T08:21:54.026Z,994.21
2018-12-22T08:22:54.016Z,994.11
2018-12-22T08:23:54.003Z,994.12
2018-12-22T08:24:54.020Z,994.11
2018-12-22T08:25:53.990Z,994.20
2018-12-22T08:26:53.976Z,994.15
2018-12-22T08:27:53.968Z,994.20
2018-12-22T08:28:53.956Z,994.19
2018-12-22T08:29:53.946Z,994.20
2018-12-22T08:30:54.263Z,994.30
2018-12-22T08:31:53.976Z,994.27
2018-12-22T08:32:53.926Z,994.26
2018-12-22T08:33:53.904Z,994.34
2018-12-22T08:34:53.888Z,994.36
2018-12-22T08:35:53.894Z,994.45
2018-12-22T08:36:54.547Z,994.37
2018-12-22T08:37:53.876Z,994.46
2018-12-22T08:38:53.852Z,994.46
2018-12-22T08:39:53.832Z,994.45
2018-12-22T08:40:53.849Z,994.52
2018-12-22T08:41:53.814Z,994.50
2018-12-22T08:42:53.810Z,994.57
2018-12-22T08:43:53.789Z,994.59
2018-12-22T08:44:53.774Z,994.59
2018-12-22T08:45:53.810Z,994.69
2018-12-22T08:46:53.756Z,994.59
2018-12-22T08:47:53.750Z,994.74
2018-12-22T08:48:53.744Z,994.76
2018-12-22T08:49:53.719Z,994.77
2018-12-22T08:50:53.759Z,994.79
2018-12-22T08:51:53.753Z,994.80
2018-12-22T08:52:53.751Z,994.85
2018-12-22T08:53:53.675Z,994.88
2018-12-22T08:54:53.670Z,994.90
2018-12-22T08:55:53.684Z,994.97
2018-12-22T08:56:53.649Z,995.05
2018-12-22T08:57:53.638Z,994.98
2018-12-22T08:58:53.625Z,995.00
2018-12-22T08:59:53.613Z,995.10
2018-12-22T09:00:53.605Z,995.12
2018-12-22T09:01:53.616Z,995.19
2018-12-22T09:02:53.582Z,995.19
2018-12-22T09:03:53.572Z,995.34
2018-12-22T09:04:53.554Z,995.27
2018-12-22T09:05:53.552Z,995.36
2018-12-22T09:06:53.552Z,995.31
2018-12-22T09:07:53.544Z,995.35
2018-12-22T09:08:54.002Z,995.36
2018-12-22T09:09:53.528Z,995.45
2018-12-22T09:10:53.492Z,995.42
2018-12-22T09:11:53.495Z,995.60
2018-12-22T09:12:53.511Z,995.52
2018-12-22T09:13:53.457Z,995.62
2018-12-22T09:14:53.476Z,995.64
2018-12-22T09:15:53.437Z,995.62
2018-12-22T09:16:53.424Z,995.70
2018-12-22T09:17:53.422Z,995.74
2018-12-22T09:18:53.411Z,995.72
2018-12-22T09:19:53.395Z,995.83
2018-12-22T09:20:53.404Z,995.83
2018-12-22T09:21:53.406Z,995.94
2018-12-22T09:22:53.360Z,995.83
2018-12-22T09:23:53.357Z,995.84
2018-12-22T09:24:53.342Z,995.94
2018-12-22T09:25:53.342Z,995.98
2018-12-22T09:26:53.316Z,996.02
2018-12-22T09:27:53.305Z,996.07
2018-12-22T09:28:53.295Z,996.08
2018-12-22T09:29:53.305Z,996.10
2018-12-22T09:31:00.599Z,996.14
2018-12-22T09:31:54.266Z,996.14
2018-12-22T09:32:53.270Z,996.11
2018-12-22T09:33:53.268Z,996.23
2018-12-22T09:34:53.227Z,996.18
2018-12-22T09:35:53.234Z,996.36
2018-12-22T09:36:53.207Z,996.27
2018-12-22T09:37:53.202Z,996.29
2018-12-22T09:38:53.192Z,996.38
2018-12-22T09:39:53.173Z,996.43
2018-12-22T09:40:53.189Z,996.41
2018-12-22T09:41:53.156Z,996.48
2018-12-22T09:42:53.146Z,996.42
2018-12-22T09:43:53.134Z,996.57
2018-12-22T09:44:53.121Z,996.55
2018-12-22T09:45:53.108Z,996.50
2018-12-22T09:46:53.118Z,996.58
2018-12-22T09:47:53.088Z,996.57
2018-12-22T09:48:53.082Z,996.60
2018-12-22T09:49:53.067Z,996.63
2018-12-22T09:50:53.058Z,996.58
2018-12-22T09:51:53.066Z,996.64
2018-12-22T09:52:53.039Z,996.70
2018-12-22T09:53:53.044Z,996.64
2018-12-22T09:54:53.051Z,996.67
2018-12-22T09:55:53.073Z,996.68
2018-12-22T09:56:53.014Z,996.68
2018-12-22T09:57:52.979Z,996.63
2018-12-22T09:58:52.988Z,996.66
2018-12-22T09:59:52.955Z,996.68
2018-12-22T10:00:52.946Z,996.73
2018-12-22T10:01:52.957Z,996.71
2018-12-22T10:02:52.925Z,996.69
2018-12-22T10:03:52.917Z,996.70
2018-12-22T10:04:52.904Z,996.74
2018-12-22T10:05:52.918Z,996.69
2018-12-22T10:06:52.883Z,996.68
2018-12-22T10:07:52.886Z,996.74
2018-12-22T10:08:52.859Z,996.72
2018-12-22T10:09:52.869Z,996.77
2018-12-22T10:10:52.853Z,996.82
2018-12-22T10:11:52.831Z,996.88
2018-12-22T10:12:52.840Z,996.84
2018-12-22T10:13:52.806Z,996.87
2018-12-22T10:14:52.803Z,996.91
2018-12-22T10:15:52.816Z,996.96
2018-12-22T10:16:52.774Z,996.99
2018-12-22T10:17:52.779Z,996.97
2018-12-22T10:18:52.747Z,997.03
2018-12-22T10:19:52.738Z,997.01
2018-12-22T10:20:52.731Z,997.02
2018-12-22T10:21:52.727Z,997.08
2018-12-22T10:22:52.733Z,997.01
2018-12-22T10:23:52.699Z,997.05
2018-12-22T10:24:52.687Z,997.03
2018-12-22T10:25:52.690Z,997.09
2018-12-22T10:26:52.661Z,997.05
2018-12-22T10:27:52.679Z,997.10
2018-12-22T10:28:52.642Z,997.02
2018-12-22T10:29:52.630Z,997.11
2018-12-22T10:30:52.620Z,997.12
2018-12-22T10:31:52.605Z,997.08
2018-12-22T10:32:52.614Z,997.07
2018-12-22T10:33:52.591Z,997.12
2018-12-22T10:34:52.582Z,997.15
2018-12-22T10:35:52.609Z,997.08
2018-12-22T10:36:52.584Z,997.10
2018-12-22T10:37:52.632Z,997.13
2018-12-22T10:38:52.535Z,997.17
2018-12-22T10:39:52.520Z,997.17
2018-12-22T10:40:52.529Z,997.25
2018-12-22T10:41:52.505Z,997.19
2018-12-22T10:42:52.493Z,997.19
2018-12-22T10:43:52.476Z,997.21
2018-12-22T10:44:52.474Z,997.20
2018-12-22T10:45:52.475Z,997.25
2018-12-22T10:46:52.456Z,997.33
2018-12-22T10:47:52.447Z,997.28
2018-12-22T10:48:52.440Z,997.25
2018-12-22T10:49:52.412Z,997.31
2018-12-22T10:50:52.417Z,997.36
2018-12-22T10:51:52.395Z,997.28
2018-12-22T10:52:52.397Z,997.37
2018-12-22T10:53:52.375Z,997.30
2018-12-22T10:54:52.362Z,997.35
2018-12-22T10:55:52.370Z,997.40
2018-12-22T10:56:52.355Z,997.37
2018-12-22T10:57:52.357Z,997.43
2018-12-22T10:58:52.315Z,997.40
2018-12-22T10:59:52.330Z,997.40
2018-12-22T11:00:52.315Z,997.41
2018-12-22T11:01:52.314Z,997.39
2018-12-22T11:02:52.285Z,997.48
2018-12-22T11:03:52.262Z,997.37
2018-12-22T11:04:52.284Z,997.32
2018-12-22T11:05:52.260Z,997.39
2018-12-22T11:06:52.235Z,997.37
2018-12-22T11:07:52.220Z,997.34
2018-12-22T11:08:52.226Z,997.31
2018-12-22T11:09:52.196Z,997.32
2018-12-22T11:10:52.185Z,997.37
2018-12-22T11:11:52.178Z,997.40
2018-12-22T11:12:52.161Z,997.37
2018-12-22T11:13:52.176Z,997.35
2018-12-22T11:14:52.150Z,997.40
2018-12-22T11:15:52.146Z,997.36
2018-12-22T11:16:52.119Z,997.34
2018-12-22T11:17:52.126Z,997.43
2018-12-22T11:18:52.170Z,997.40
2018-12-22T11:19:52.124Z,997.39
2018-12-22T11:20:52.094Z,997.46
2018-12-22T11:21:52.065Z,997.34
2018-12-22T11:22:52.050Z,997.28
2018-12-22T11:23:52.054Z,997.34
2018-12-22T11:24:52.031Z,997.35
2018-12-22T11:25:52.041Z,997.40
2018-12-22T11:26:52.494Z,997.38
2018-12-22T11:27:52.005Z,997.35
2018-12-22T11:28:51.990Z,997.27
2018-12-22T11:29:51.977Z,997.30
2018-12-22T11:30:51.986Z,997.27
2018-12-22T11:31:51.960Z,997.28
2018-12-22T11:32:51.945Z,997.37
2018-12-22T11:33:51.934Z,997.32
2018-12-22T11:34:51.923Z,997.33
2018-12-22T11:35:51.912Z,997.34
2018-12-22T11:36:51.920Z,997.32
2018-12-22T11:37:51.897Z,997.25
2018-12-22T11:38:51.930Z,997.31
2018-12-22T11:39:51.914Z,997.32
2018-12-22T11:40:51.863Z,997.31
2018-12-22T11:41:51.844Z,997.25
2018-12-22T11:42:51.834Z,997.29
2018-12-22T11:43:51.839Z,997.29
2018-12-22T11:44:51.844Z,997.33
2018-12-22T11:45:51.805Z,997.34
2018-12-22T11:46:51.833Z,997.27
2018-12-22T11:47:51.775Z,997.32
2018-12-22T11:48:51.786Z,997.39
2018-12-22T11:49:51.758Z,997.32
2018-12-22T11:50:51.749Z,997.35
2018-12-22T11:51:51.739Z,997.36
2018-12-22T11:52:51.730Z,997.41
2018-12-22T11:53:51.740Z,997.36
2018-12-22T11:54:51.705Z,997.40
2018-12-22T11:55:51.688Z,997.36
2018-12-22T11:56:51.679Z,997.35
2018-12-22T11:57:51.670Z,997.34
2018-12-22T11:58:51.664Z,997.42
2018-12-22T11:59:51.711Z,997.44
2018-12-22T12:00:51.698Z,997.40
2018-12-22T12:01:51.646Z,997.46
2018-12-22T12:02:51.612Z,997.40
2018-12-22T12:03:51.612Z,997.40
2018-12-22T12:04:51.595Z,997.43
2018-12-22T12:05:51.582Z,997.38
2018-12-22T12:06:51.589Z,997.40
2018-12-22T12:07:51.564Z,997.43
2018-12-22T12:08:51.549Z,997.51
2018-12-22T12:09:52.190Z,997.48
2018-12-22T12:10:51.533Z,997.48
2018-12-22T12:11:51.521Z,997.46
2018-12-22T12:12:51.509Z,997.51
2018-12-22T12:13:51.506Z,997.49
2018-12-22T12:14:51.506Z,997.47
2018-12-22T12:15:51.471Z,997.54
2018-12-22T12:16:51.461Z,997.48
2018-12-22T12:17:51.455Z,997.51
2018-12-22T12:18:51.445Z,997.52
2018-12-22T12:19:51.430Z,997.56
2018-12-22T12:20:51.461Z,997.70
2018-12-22T12:21:51.462Z,997.74
2018-12-22T12:22:51.401Z,997.76
2018-12-22T12:23:51.398Z,997.70
2018-12-22T12:24:51.377Z,997.71
2018-12-22T12:25:51.382Z,997.76
2018-12-22T12:26:51.351Z,997.66
2018-12-22T12:27:51.404Z,997.72
2018-12-22T12:28:51.332Z,997.77